sensor_id;sensor_type;location;lat;lon;timestamp;temperature;humidity
73777;DHT22;62088;50.240;2.696;2024-02-14T00:00:54;8.90;87.80
73777;DHT22;62088;50.240;2.696;2024-02-14T00:03:22;8.90;87.80
73777;DHT22;62088;50.240;2.696;2024-02-14T00:05:50;8.90;87.80
73777;DHT22;62088;50.240;2.696;2024-02-14T00:08:19;8.90;87.80
73777;DHT22;62088;50.240;2.696;2024-02-14T00:10:48;8.90;87.90
73777;DHT22;62088;50.240;2.696;2024-02-14T00:13:15;8.90;87.80
73777;DHT22;62088;50.240;2.696;2024-02-14T00:15:45;8.90;87.80
73777;DHT22;62088;50.240;2.696;2024-02-14T00:18:14;8.90;87.90
73777;DHT22;62088;50.240;2.696;2024-02-14T00:20:43;8.90;87.90
73777;DHT22;62088;50.240;2.696;2024-02-14T00:23:10;8.90;87.90
73777;DHT22;62088;50.240;2.696;2024-02-14T00:25:39;8.90;87.90
73777;DHT22;62088;50.240;2.696;2024-02-14T00:28:06;9.00;87.90
73777;DHT22;62088;50.240;2.696;2024-02-14T00:30:33;8.90;87.90
73777;DHT22;62088;50.240;2.696;2024-02-14T00:33:01;9.00;87.90
73777;DHT22;62088;50.240;2.696;2024-02-14T00:35:29;9.00;87.90
73777;DHT22;62088;50.240;2.696;2024-02-14T00:37:56;9.00;87.90
73777;DHT22;62088;50.240;2.696;2024-02-14T00:40:23;9.00;87.90
73777;DHT22;62088;50.240;2.696;2024-02-14T00:42:50;9.00;87.90
73777;DHT22;62088;50.240;2.696;2024-02-14T00:45:17;9.00;87.90
73777;DHT22;62088;50.240;2.696;2024-02-14T00:47:44;9.10;88.00
73777;DHT22;62088;50.240;2.696;2024-02-14T00:50:12;9.10;88.00
73777;DHT22;62088;50.240;2.696;2024-02-14T00:52:41;9.10;88.00
73777;DHT22;62088;50.240;2.696;2024-02-14T00:55:08;9.10;88.00
73777;DHT22;62088;50.240;2.696;2024-02-14T00:57:35;9.10;88.00
73777;DHT22;62088;50.240;2.696;2024-02-14T01:00:05;9.10;88.00
73777;DHT22;62088;50.240;2.696;2024-02-14T01:02:33;9.20;88.10
73777;DHT22;62088;50.240;2.696;2024-02-14T01:05:01;9.20;88.10
73777;DHT22;62088;50.240;2.696;2024-02-14T01:07:28;9.20;88.10
73777;DHT22;62088;50.240;2.696;2024-02-14T01:09:55;9.20;88.10
73777;DHT22;62088;50.240;2.696;2024-02-14T01:12:23;9.20;88.10
73777;DHT22;62088;50.240;2.696;2024-02-14T01:14:50;9.20;88.20
73777;DHT22;62088;50.240;2.696;2024-02-14T01:41:18;9.40;88.30
73777;DHT22;62088;50.240;2.696;2024-02-14T01:43:47;9.40;88.30
73777;DHT22;62088;50.240;2.696;2024-02-14T01:46:14;9.40;88.30
73777;DHT22;62088;50.240;2.696;2024-02-14T01:48:42;9.40;88.30
73777;DHT22;62088;50.240;2.696;2024-02-14T01:51:11;9.40;88.30
73777;DHT22;62088;50.240;2.696;2024-02-14T01:53:41;9.40;88.30
73777;DHT22;62088;50.240;2.696;2024-02-14T01:56:09;9.40;88.30
73777;DHT22;62088;50.240;2.696;2024-02-14T01:58:37;9.40;88.30
73777;DHT22;62088;50.240;2.696;2024-02-14T02:01:04;9.40;88.40
73777;DHT22;62088;50.240;2.696;2024-02-14T02:03:31;9.40;88.40
73777;DHT22;62088;50.240;2.696;2024-02-14T02:06:05;9.40;88.40
73777;DHT22;62088;50.240;2.696;2024-02-14T02:08:33;9.40;88.40
73777;DHT22;62088;50.240;2.696;2024-02-14T02:11:00;9.40;88.40
73777;DHT22;62088;50.240;2.696;2024-02-14T02:13:27;9.40;88.40
73777;DHT22;62088;50.240;2.696;2024-02-14T02:15:54;9.40;88.40
73777;DHT22;62088;50.240;2.696;2024-02-14T02:18:21;9.50;88.40
73777;DHT22;62088;50.240;2.696;2024-02-14T02:20:49;9.50;88.40
73777;DHT22;62088;50.240;2.696;2024-02-14T02:23:17;9.50;88.40
73777;DHT22;62088;50.240;2.696;2024-02-14T02:25:44;9.50;88.40
73777;DHT22;62088;50.240;2.696;2024-02-14T02:28:11;9.50;88.40
73777;DHT22;62088;50.240;2.696;2024-02-14T02:30:38;9.50;88.40
73777;DHT22;62088;50.240;2.696;2024-02-14T02:33:06;9.50;88.40
73777;DHT22;62088;50.240;2.696;2024-02-14T02:35:34;9.40;88.40
73777;DHT22;62088;50.240;2.696;2024-02-14T02:38:02;9.50;88.40
73777;DHT22;62088;50.240;2.696;2024-02-14T02:40:30;9.50;88.40
73777;DHT22;62088;50.240;2.696;2024-02-14T02:42:57;9.40;88.40
73777;DHT22;62088;50.240;2.696;2024-02-14T02:45:25;9.50;88.40
73777;DHT22;62088;50.240;2.696;2024-02-14T02:47:52;9.50;88.50
73777;DHT22;62088;50.240;2.696;2024-02-14T02:50:20;9.50;88.40
73777;DHT22;62088;50.240;2.696;2024-02-14T02:52:49;9.50;88.50
73777;DHT22;62088;50.240;2.696;2024-02-14T02:55:16;9.50;88.50
73777;DHT22;62088;50.240;2.696;2024-02-14T02:57:45;9.50;88.50
73777;DHT22;62088;50.240;2.696;2024-02-14T03:00:13;9.50;88.50
73777;DHT22;62088;50.240;2.696;2024-02-14T03:02:40;9.50;88.50
73777;DHT22;62088;50.240;2.696;2024-02-14T03:05:13;9.50;88.50
73777;DHT22;62088;50.240;2.696;2024-02-14T03:07:46;9.60;88.50
73777;DHT22;62088;50.240;2.696;2024-02-14T03:10:15;9.60;88.50
73777;DHT22;62088;50.240;2.696;2024-02-14T03:12:49;9.60;88.50
73777;DHT22;62088;50.240;2.696;2024-02-14T03:15:16;9.60;88.50
73777;DHT22;62088;50.240;2.696;2024-02-14T03:17:45;9.60;88.60
73777;DHT22;62088;50.240;2.696;2024-02-14T03:20:13;9.60;88.50
73777;DHT22;62088;50.240;2.696;2024-02-14T03:22:44;9.60;88.60
73777;DHT22;62088;50.240;2.696;2024-02-14T03:25:21;9.70;88.60
73777;DHT22;62088;50.240;2.696;2024-02-14T03:27:48;9.70;88.60
73777;DHT22;62088;50.240;2.696;2024-02-14T03:30:20;9.70;88.60
73777;DHT22;62088;50.240;2.696;2024-02-14T03:32:50;9.70;88.60
73777;DHT22;62088;50.240;2.696;2024-02-14T03:35:17;9.70;88.60
73777;DHT22;62088;50.240;2.696;2024-02-14T03:37:46;9.70;88.60
73777;DHT22;62088;50.240;2.696;2024-02-14T03:40:17;9.70;88.60
73777;DHT22;62088;50.240;2.696;2024-02-14T03:42:44;9.80;88.60
73777;DHT22;62088;50.240;2.696;2024-02-14T03:45:11;9.80;88.60
73777;DHT22;62088;50.240;2.696;2024-02-14T03:47:39;9.80;88.60
73777;DHT22;62088;50.240;2.696;2024-02-14T03:50:09;9.80;88.60
73777;DHT22;62088;50.240;2.696;2024-02-14T03:52:36;9.80;88.70
73777;DHT22;62088;50.240;2.696;2024-02-14T03:55:04;9.90;88.70
73777;DHT22;62088;50.240;2.696;2024-02-14T03:57:31;9.80;88.60
73777;DHT22;62088;50.240;2.696;2024-02-14T04:00:00;9.80;88.60
73777;DHT22;62088;50.240;2.696;2024-02-14T04:02:39;9.90;88.60
73777;DHT22;62088;50.240;2.696;2024-02-14T04:05:08;9.90;88.60
73777;DHT22;62088;50.240;2.696;2024-02-14T04:07:36;9.90;88.60
73777;DHT22;62088;50.240;2.696;2024-02-14T04:10:05;9.80;88.60
73777;DHT22;62088;50.240;2.696;2024-02-14T04:12:32;9.90;88.60
73777;DHT22;62088;50.240;2.696;2024-02-14T04:15:01;9.80;88.60
73777;DHT22;62088;50.240;2.696;2024-02-14T04:17:28;9.90;88.60
73777;DHT22;62088;50.240;2.696;2024-02-14T04:19:55;9.80;88.50
73777;DHT22;62088;50.240;2.696;2024-02-14T04:22:22;9.80;88.50
73777;DHT22;62088;50.240;2.696;2024-02-14T04:24:50;9.80;88.60
73777;DHT22;62088;50.240;2.696;2024-02-14T04:27:17;9.80;88.60
73777;DHT22;62088;50.240;2.696;2024-02-14T04:29:48;9.80;88.60
73777;DHT22;62088;50.240;2.696;2024-02-14T04:32:16;9.80;88.60
73777;DHT22;62088;50.240;2.696;2024-02-14T04:34:44;9.80;88.60
73777;DHT22;62088;50.240;2.696;2024-02-14T04:37:11;9.80;88.60
73777;DHT22;62088;50.240;2.696;2024-02-14T04:39:40;9.80;88.60
73777;DHT22;62088;50.240;2.696;2024-02-14T04:42:08;9.90;88.60
73777;DHT22;62088;50.240;2.696;2024-02-14T04:44:36;9.90;88.60
73777;DHT22;62088;50.240;2.696;2024-02-14T04:47:03;9.90;88.60
73777;DHT22;62088;50.240;2.696;2024-02-14T04:49:30;9.90;88.70
73777;DHT22;62088;50.240;2.696;2024-02-14T04:51:59;9.90;88.60
73777;DHT22;62088;50.240;2.696;2024-02-14T04:54:26;9.90;88.60
73777;DHT22;62088;50.240;2.696;2024-02-14T04:56:55;9.90;88.70
73777;DHT22;62088;50.240;2.696;2024-02-14T04:59:27;9.90;88.60
73777;DHT22;62088;50.240;2.696;2024-02-14T05:01:54;9.90;88.70
73777;DHT22;62088;50.240;2.696;2024-02-14T05:04:21;9.90;88.60
73777;DHT22;62088;50.240;2.696;2024-02-14T05:06:49;10.00;88.60
73777;DHT22;62088;50.240;2.696;2024-02-14T05:09:23;10.00;88.60
73777;DHT22;62088;50.240;2.696;2024-02-14T05:11:50;10.00;88.60
73777;DHT22;62088;50.240;2.696;2024-02-14T05:14:17;10.00;88.60
73777;DHT22;62088;50.240;2.696;2024-02-14T05:16:44;10.00;88.60
73777;DHT22;62088;50.240;2.696;2024-02-14T05:19:12;10.00;88.60
73777;DHT22;62088;50.240;2.696;2024-02-14T05:21:40;10.00;88.60
73777;DHT22;62088;50.240;2.696;2024-02-14T05:24:07;10.00;88.60
73777;DHT22;62088;50.240;2.696;2024-02-14T05:26:35;10.00;88.60
73777;DHT22;62088;50.240;2.696;2024-02-14T05:29:03;10.00;88.60
73777;DHT22;62088;50.240;2.696;2024-02-14T05:31:43;10.00;88.60
73777;DHT22;62088;50.240;2.696;2024-02-14T05:34:11;10.10;88.60
73777;DHT22;62088;50.240;2.696;2024-02-14T05:36:38;10.10;88.60
73777;DHT22;62088;50.240;2.696;2024-02-14T05:39:06;10.00;88.60
73777;DHT22;62088;50.240;2.696;2024-02-14T05:41:34;10.10;88.60
73777;DHT22;62088;50.240;2.696;2024-02-14T05:44:02;10.10;88.60
73777;DHT22;62088;50.240;2.696;2024-02-14T05:46:29;10.10;88.60
73777;DHT22;62088;50.240;2.696;2024-02-14T05:48:57;10.10;88.70
73777;DHT22;62088;50.240;2.696;2024-02-14T05:51:25;10.10;88.70
73777;DHT22;62088;50.240;2.696;2024-02-14T05:53:52;10.10;88.70
73777;DHT22;62088;50.240;2.696;2024-02-14T05:56:19;10.10;88.70
73777;DHT22;62088;50.240;2.696;2024-02-14T05:58:46;10.20;88.70
73777;DHT22;62088;50.240;2.696;2024-02-14T06:01:13;10.20;88.70
73777;DHT22;62088;50.240;2.696;2024-02-14T06:03:43;10.20;88.60
73777;DHT22;62088;50.240;2.696;2024-02-14T06:06:11;10.10;88.70
73777;DHT22;62088;50.240;2.696;2024-02-14T06:08:38;10.20;88.70
73777;DHT22;62088;50.240;2.696;2024-02-14T06:11:06;10.20;88.70
73777;DHT22;62088;50.240;2.696;2024-02-14T06:13:34;10.20;88.60
73777;DHT22;62088;50.240;2.696;2024-02-14T06:16:03;10.20;88.60
73777;DHT22;62088;50.240;2.696;2024-02-14T06:18:30;10.20;88.60
73777;DHT22;62088;50.240;2.696;2024-02-14T06:20:57;10.20;88.60
73777;DHT22;62088;50.240;2.696;2024-02-14T06:23:25;10.20;88.60
73777;DHT22;62088;50.240;2.696;2024-02-14T06:25:52;10.20;88.60
73777;DHT22;62088;50.240;2.696;2024-02-14T06:28:20;10.20;88.70
73777;DHT22;62088;50.240;2.696;2024-02-14T06:30:47;10.20;88.70
73777;DHT22;62088;50.240;2.696;2024-02-14T06:33:14;10.20;88.70
73777;DHT22;62088;50.240;2.696;2024-02-14T06:35:42;10.20;88.70
73777;DHT22;62088;50.240;2.696;2024-02-14T06:38:09;10.20;88.70
73777;DHT22;62088;50.240;2.696;2024-02-14T06:40:36;10.30;88.70
73777;DHT22;62088;50.240;2.696;2024-02-14T06:43:03;10.30;88.70
73777;DHT22;62088;50.240;2.696;2024-02-14T06:45:34;10.30;88.70
73777;DHT22;62088;50.240;2.696;2024-02-14T06:48:01;10.30;88.70
73777;DHT22;62088;50.240;2.696;2024-02-14T06:50:28;10.30;88.70
73777;DHT22;62088;50.240;2.696;2024-02-14T06:52:56;10.30;88.70
73777;DHT22;62088;50.240;2.696;2024-02-14T06:55:28;10.30;88.70
73777;DHT22;62088;50.240;2.696;2024-02-14T06:57:59;10.40;88.70
73777;DHT22;62088;50.240;2.696;2024-02-14T07:00:27;10.40;88.70
73777;DHT22;62088;50.240;2.696;2024-02-14T07:02:55;10.40;88.70
73777;DHT22;62088;50.240;2.696;2024-02-14T07:05:23;10.30;88.70
73777;DHT22;62088;50.240;2.696;2024-02-14T07:07:50;10.40;88.70
73777;DHT22;62088;50.240;2.696;2024-02-14T07:10:17;10.40;88.70
73777;DHT22;62088;50.240;2.696;2024-02-14T07:12:45;10.40;88.70
73777;DHT22;62088;50.240;2.696;2024-02-14T07:15:12;10.40;88.80
73777;DHT22;62088;50.240;2.696;2024-02-14T07:17:39;10.40;88.80
73777;DHT22;62088;50.240;2.696;2024-02-14T07:20:07;10.40;88.80
73777;DHT22;62088;50.240;2.696;2024-02-14T07:22:37;10.40;88.80
73777;DHT22;62088;50.240;2.696;2024-02-14T07:25:04;10.40;88.80
73777;DHT22;62088;50.240;2.696;2024-02-14T07:27:32;10.40;88.80
73777;DHT22;62088;50.240;2.696;2024-02-14T07:29:59;10.40;88.80
73777;DHT22;62088;50.240;2.696;2024-02-14T07:32:28;10.40;88.80
73777;DHT22;62088;50.240;2.696;2024-02-14T07:34:55;10.40;88.80
73777;DHT22;62088;50.240;2.696;2024-02-14T07:37:22;10.50;88.80
73777;DHT22;62088;50.240;2.696;2024-02-14T07:39:49;10.50;88.80
73777;DHT22;62088;50.240;2.696;2024-02-14T07:42:17;10.50;88.80
73777;DHT22;62088;50.240;2.696;2024-02-14T07:44:44;10.50;88.80
73777;DHT22;62088;50.240;2.696;2024-02-14T07:47:11;10.50;88.80
73777;DHT22;62088;50.240;2.696;2024-02-14T07:49:39;10.50;88.90
73777;DHT22;62088;50.240;2.696;2024-02-14T07:52:08;10.50;88.90
73777;DHT22;62088;50.240;2.696;2024-02-14T07:54:35;10.50;88.90
73777;DHT22;62088;50.240;2.696;2024-02-14T07:57:02;10.60;88.90
73777;DHT22;62088;50.240;2.696;2024-02-14T07:59:30;10.60;88.90
73777;DHT22;62088;50.240;2.696;2024-02-14T08:01:58;10.60;88.90
73777;DHT22;62088;50.240;2.696;2024-02-14T08:04:25;10.60;88.90
73777;DHT22;62088;50.240;2.696;2024-02-14T08:06:53;10.60;88.90
73777;DHT22;62088;50.240;2.696;2024-02-14T08:09:20;10.60;88.90
73777;DHT22;62088;50.240;2.696;2024-02-14T08:11:47;10.60;88.90
73777;DHT22;62088;50.240;2.696;2024-02-14T08:14:15;10.60;89.00
73777;DHT22;62088;50.240;2.696;2024-02-14T08:16:42;10.60;89.00
73777;DHT22;62088;50.240;2.696;2024-02-14T08:19:09;10.70;89.00
73777;DHT22;62088;50.240;2.696;2024-02-14T08:21:36;10.70;89.00
73777;DHT22;62088;50.240;2.696;2024-02-14T08:24:03;10.70;89.10
73777;DHT22;62088;50.240;2.696;2024-02-14T08:26:32;10.70;89.10
73777;DHT22;62088;50.240;2.696;2024-02-14T08:28:59;10.70;89.10
73777;DHT22;62088;50.240;2.696;2024-02-14T08:31:27;10.70;89.10
73777;DHT22;62088;50.240;2.696;2024-02-14T08:33:55;10.70;89.10
73777;DHT22;62088;50.240;2.696;2024-02-14T08:36:22;10.70;89.10
73777;DHT22;62088;50.240;2.696;2024-02-14T08:38:50;10.80;89.10
73777;DHT22;62088;50.240;2.696;2024-02-14T08:41:18;10.80;89.20
73777;DHT22;62088;50.240;2.696;2024-02-14T08:43:50;10.80;89.20
73777;DHT22;62088;50.240;2.696;2024-02-14T08:46:18;10.80;89.20
73777;DHT22;62088;50.240;2.696;2024-02-14T08:48:45;10.80;89.20
73777;DHT22;62088;50.240;2.696;2024-02-14T08:51:16;10.80;89.20
73777;DHT22;62088;50.240;2.696;2024-02-14T08:53:44;10.90;89.30
73777;DHT22;62088;50.240;2.696;2024-02-14T08:56:12;10.90;89.30
73777;DHT22;62088;50.240;2.696;2024-02-14T08:58:40;10.90;89.30
73777;DHT22;62088;50.240;2.696;2024-02-14T09:01:07;10.90;89.30
73777;DHT22;62088;50.240;2.696;2024-02-14T09:03:43;10.90;89.30
73777;DHT22;62088;50.240;2.696;2024-02-14T09:06:16;10.90;89.30
73777;DHT22;62088;50.240;2.696;2024-02-14T09:08:45;11.00;89.30
73777;DHT22;62088;50.240;2.696;2024-02-14T09:11:12;11.00;89.30
73777;DHT22;62088;50.240;2.696;2024-02-14T09:13:40;11.00;89.40
73777;DHT22;62088;50.240;2.696;2024-02-14T09:16:10;11.00;89.40
73777;DHT22;62088;50.240;2.696;2024-02-14T09:18:38;11.00;89.40
73777;DHT22;62088;50.240;2.696;2024-02-14T09:21:06;11.10;89.40
73777;DHT22;62088;50.240;2.696;2024-02-14T09:23:34;11.10;89.40
73777;DHT22;62088;50.240;2.696;2024-02-14T09:26:01;11.10;89.50
73777;DHT22;62088;50.240;2.696;2024-02-14T09:28:29;11.10;89.40
73777;DHT22;62088;50.240;2.696;2024-02-14T09:30:56;11.20;89.50
73777;DHT22;62088;50.240;2.696;2024-02-14T09:33:24;11.20;89.50
73777;DHT22;62088;50.240;2.696;2024-02-14T09:35:51;11.20;89.50
73777;DHT22;62088;50.240;2.696;2024-02-14T09:38:20;11.30;89.50
73777;DHT22;62088;50.240;2.696;2024-02-14T09:40:47;11.40;89.50
73777;DHT22;62088;50.240;2.696;2024-02-14T09:43:31;11.40;89.50
73777;DHT22;62088;50.240;2.696;2024-02-14T09:45:59;11.40;89.50
73777;DHT22;62088;50.240;2.696;2024-02-14T09:48:27;11.40;89.50
73777;DHT22;62088;50.240;2.696;2024-02-14T09:50:56;11.40;89.50
73777;DHT22;62088;50.240;2.696;2024-02-14T09:53:25;11.50;89.50
73777;DHT22;62088;50.240;2.696;2024-02-14T09:55:53;11.50;89.50
73777;DHT22;62088;50.240;2.696;2024-02-14T09:58:22;11.50;89.50
73777;DHT22;62088;50.240;2.696;2024-02-14T10:00:49;11.60;89.40
73777;DHT22;62088;50.240;2.696;2024-02-14T10:03:17;11.60;89.40
73777;DHT22;62088;50.240;2.696;2024-02-14T10:05:44;11.60;89.40
73777;DHT22;62088;50.240;2.696;2024-02-14T10:08:15;11.60;89.40
73777;DHT22;62088;50.240;2.696;2024-02-14T10:10:44;11.70;89.40
73777;DHT22;62088;50.240;2.696;2024-02-14T10:13:17;11.70;89.40
73777;DHT22;62088;50.240;2.696;2024-02-14T10:15:45;11.70;89.40
73777;DHT22;62088;50.240;2.696;2024-02-14T10:18:13;11.70;89.50
73777;DHT22;62088;50.240;2.696;2024-02-14T10:20:51;11.70;89.40
73777;DHT22;62088;50.240;2.696;2024-02-14T10:23:19;11.80;89.40
73777;DHT22;62088;50.240;2.696;2024-02-14T10:25:53;11.80;89.40
73777;DHT22;62088;50.240;2.696;2024-02-14T10:28:21;11.80;89.50
73777;DHT22;62088;50.240;2.696;2024-02-14T10:30:59;11.90;89.40
73777;DHT22;62088;50.240;2.696;2024-02-14T10:33:29;11.90;89.40
73777;DHT22;62088;50.240;2.696;2024-02-14T10:35:57;11.90;89.40
73777;DHT22;62088;50.240;2.696;2024-02-14T10:38:31;11.90;89.30
73777;DHT22;62088;50.240;2.696;2024-02-14T10:41:02;11.90;89.30
73777;DHT22;62088;50.240;2.696;2024-02-14T10:43:30;11.90;89.40
73777;DHT22;62088;50.240;2.696;2024-02-14T10:46:07;11.90;89.30
73777;DHT22;62088;50.240;2.696;2024-02-14T10:48:36;11.90;89.40
73777;DHT22;62088;50.240;2.696;2024-02-14T10:51:05;11.90;89.40
73777;DHT22;62088;50.240;2.696;2024-02-14T10:53:35;11.90;89.30
73777;DHT22;62088;50.240;2.696;2024-02-14T10:56:06;11.90;89.30
73777;DHT22;62088;50.240;2.696;2024-02-14T10:58:35;12.00;89.30
73777;DHT22;62088;50.240;2.696;2024-02-14T11:01:02;12.00;89.30
73777;DHT22;62088;50.240;2.696;2024-02-14T11:03:29;12.00;89.30
73777;DHT22;62088;50.240;2.696;2024-02-14T11:06:01;12.00;89.30
73777;DHT22;62088;50.240;2.696;2024-02-14T11:08:32;12.10;89.40
73777;DHT22;62088;50.240;2.696;2024-02-14T11:11:00;12.10;89.30
73777;DHT22;62088;50.240;2.696;2024-02-14T11:13:31;12.10;89.30
73777;DHT22;62088;50.240;2.696;2024-02-14T11:16:02;12.10;89.30
73777;DHT22;62088;50.240;2.696;2024-02-14T11:18:31;12.20;89.30
73777;DHT22;62088;50.240;2.696;2024-02-14T11:21:15;12.20;89.30
73777;DHT22;62088;50.240;2.696;2024-02-14T11:23:53;12.20;89.30
73777;DHT22;62088;50.240;2.696;2024-02-14T11:26:21;12.20;89.30
73777;DHT22;62088;50.240;2.696;2024-02-14T11:28:59;12.20;89.30
73777;DHT22;62088;50.240;2.696;2024-02-14T11:31:33;12.30;89.30
73777;DHT22;62088;50.240;2.696;2024-02-14T11:34:06;12.30;89.30
73777;DHT22;62088;50.240;2.696;2024-02-14T11:36:36;12.30;89.30
73777;DHT22;62088;50.240;2.696;2024-02-14T11:39:03;12.30;89.30
73777;DHT22;62088;50.240;2.696;2024-02-14T11:41:35;12.30;89.30
73777;DHT22;62088;50.240;2.696;2024-02-14T11:44:05;12.30;89.20
73777;DHT22;62088;50.240;2.696;2024-02-14T11:46:36;12.30;89.20
73777;DHT22;62088;50.240;2.696;2024-02-14T11:49:05;12.40;89.20
73777;DHT22;62088;50.240;2.696;2024-02-14T11:51:34;12.40;89.20
73777;DHT22;62088;50.240;2.696;2024-02-14T11:54:03;12.40;89.20
73777;DHT22;62088;50.240;2.696;2024-02-14T11:56:38;12.40;89.20
73777;DHT22;62088;50.240;2.696;2024-02-14T11:59:07;12.40;89.20
73777;DHT22;62088;50.240;2.696;2024-02-14T12:01:36;12.40;89.20
73777;DHT22;62088;50.240;2.696;2024-02-14T12:04:08;12.40;89.20
73777;DHT22;62088;50.240;2.696;2024-02-14T12:06:39;12.40;89.20
73777;DHT22;62088;50.240;2.696;2024-02-14T12:09:09;12.40;89.20
73777;DHT22;62088;50.240;2.696;2024-02-14T12:11:37;12.40;89.20
73777;DHT22;62088;50.240;2.696;2024-02-14T12:14:08;12.40;89.10
73777;DHT22;62088;50.240;2.696;2024-02-14T12:16:38;12.40;89.20
73777;DHT22;62088;50.240;2.696;2024-02-14T12:19:14;12.40;89.20
73777;DHT22;62088;50.240;2.696;2024-02-14T12:21:43;12.40;89.20
73777;DHT22;62088;50.240;2.696;2024-02-14T12:24:12;12.40;89.20
73777;DHT22;62088;50.240;2.696;2024-02-14T12:26:42;12.50;89.20
73777;DHT22;62088;50.240;2.696;2024-02-14T12:29:13;12.50;89.20
73777;DHT22;62088;50.240;2.696;2024-02-14T12:31:41;12.50;89.20
73777;DHT22;62088;50.240;2.696;2024-02-14T12:34:11;12.50;89.20
73777;DHT22;62088;50.240;2.696;2024-02-14T12:36:39;12.60;89.20
73777;DHT22;62088;50.240;2.696;2024-02-14T12:39:06;12.60;89.20
73777;DHT22;62088;50.240;2.696;2024-02-14T12:41:36;12.60;89.20
73777;DHT22;62088;50.240;2.696;2024-02-14T12:44:07;12.60;89.20
73777;DHT22;62088;50.240;2.696;2024-02-14T12:46:34;12.60;89.20
73777;DHT22;62088;50.240;2.696;2024-02-14T12:49:05;12.70;89.20
73777;DHT22;62088;50.240;2.696;2024-02-14T12:51:33;12.70;89.20
73777;DHT22;62088;50.240;2.696;2024-02-14T12:54:01;12.70;89.20
73777;DHT22;62088;50.240;2.696;2024-02-14T12:56:28;12.80;89.20
73777;DHT22;62088;50.240;2.696;2024-02-14T12:58:57;12.80;89.20
73777;DHT22;62088;50.240;2.696;2024-02-14T13:01:26;12.80;89.20
73777;DHT22;62088;50.240;2.696;2024-02-14T13:03:53;12.80;89.20
73777;DHT22;62088;50.240;2.696;2024-02-14T13:06:21;12.90;89.20
73777;DHT22;62088;50.240;2.696;2024-02-14T13:08:48;12.90;89.20
73777;DHT22;62088;50.240;2.696;2024-02-14T13:11:15;12.90;89.20
73777;DHT22;62088;50.240;2.696;2024-02-14T13:13:43;12.90;89.20
73777;DHT22;62088;50.240;2.696;2024-02-14T13:16:11;12.90;89.20
73777;DHT22;62088;50.240;2.696;2024-02-14T13:18:38;12.90;89.20
73777;DHT22;62088;50.240;2.696;2024-02-14T13:21:05;13.00;89.10
73777;DHT22;62088;50.240;2.696;2024-02-14T13:23:33;13.00;89.10
73777;DHT22;62088;50.240;2.696;2024-02-14T13:26:01;13.00;89.10
73777;DHT22;62088;50.240;2.696;2024-02-14T13:28:32;13.00;89.10
73777;DHT22;62088;50.240;2.696;2024-02-14T13:31:00;13.00;89.00
73777;DHT22;62088;50.240;2.696;2024-02-14T13:33:27;13.00;89.00
73777;DHT22;62088;50.240;2.696;2024-02-14T13:35:54;13.00;89.00
73777;DHT22;62088;50.240;2.696;2024-02-14T13:38:22;13.00;89.00
73777;DHT22;62088;50.240;2.696;2024-02-14T13:40:49;13.00;88.90
73777;DHT22;62088;50.240;2.696;2024-02-14T13:43:17;13.00;88.90
73777;DHT22;62088;50.240;2.696;2024-02-14T13:45:45;13.00;88.90
73777;DHT22;62088;50.240;2.696;2024-02-14T13:48:13;13.00;88.90
73777;DHT22;62088;50.240;2.696;2024-02-14T13:50:41;13.00;88.90
73777;DHT22;62088;50.240;2.696;2024-02-14T13:53:09;13.00;88.90
73777;DHT22;62088;50.240;2.696;2024-02-14T13:55:37;13.00;88.90
73777;DHT22;62088;50.240;2.696;2024-02-14T13:58:06;13.00;88.90
73777;DHT22;62088;50.240;2.696;2024-02-14T14:00:37;13.10;88.90
73777;DHT22;62088;50.240;2.696;2024-02-14T14:03:04;13.10;88.90
73777;DHT22;62088;50.240;2.696;2024-02-14T14:05:31;13.10;88.90
73777;DHT22;62088;50.240;2.696;2024-02-14T14:07:58;13.10;88.80
73777;DHT22;62088;50.240;2.696;2024-02-14T14:10:27;13.10;88.80
73777;DHT22;62088;50.240;2.696;2024-02-14T14:12:55;13.10;88.80
73777;DHT22;62088;50.240;2.696;2024-02-14T14:15:24;13.20;88.80
73777;DHT22;62088;50.240;2.696;2024-02-14T14:17:53;13.20;88.70
73777;DHT22;62088;50.240;2.696;2024-02-14T14:20:20;13.20;88.70
73777;DHT22;62088;50.240;2.696;2024-02-14T14:22:48;13.10;88.70
73777;DHT22;62088;50.240;2.696;2024-02-14T14:25:15;13.10;88.60
73777;DHT22;62088;50.240;2.696;2024-02-14T14:27:43;13.20;88.60
73777;DHT22;62088;50.240;2.696;2024-02-14T14:30:11;13.20;88.60
73777;DHT22;62088;50.240;2.696;2024-02-14T14:32:39;13.20;88.60
73777;DHT22;62088;50.240;2.696;2024-02-14T14:35:07;13.20;88.60
73777;DHT22;62088;50.240;2.696;2024-02-14T14:37:38;13.20;88.50
73777;DHT22;62088;50.240;2.696;2024-02-14T14:40:05;13.20;88.50
73777;DHT22;62088;50.240;2.696;2024-02-14T14:42:35;13.20;88.50
73777;DHT22;62088;50.240;2.696;2024-02-14T14:45:02;13.20;88.40
73777;DHT22;62088;50.240;2.696;2024-02-14T14:47:30;13.20;88.40
73777;DHT22;62088;50.240;2.696;2024-02-14T14:49:57;13.20;88.40
73777;DHT22;62088;50.240;2.696;2024-02-14T14:52:26;13.30;88.40
73777;DHT22;62088;50.240;2.696;2024-02-14T14:54:54;13.20;88.40
73777;DHT22;62088;50.240;2.696;2024-02-14T14:57:21;13.30;88.30
73777;DHT22;62088;50.240;2.696;2024-02-14T14:59:53;13.30;88.30
73777;DHT22;62088;50.240;2.696;2024-02-14T15:02:21;13.30;88.30
73777;DHT22;62088;50.240;2.696;2024-02-14T15:04:49;13.30;88.30
73777;DHT22;62088;50.240;2.696;2024-02-14T15:07:17;13.30;88.20
73777;DHT22;62088;50.240;2.696;2024-02-14T15:09:47;13.30;88.20
73777;DHT22;62088;50.240;2.696;2024-02-14T15:12:14;13.40;88.20
73777;DHT22;62088;50.240;2.696;2024-02-14T15:14:41;13.40;88.20
73777;DHT22;62088;50.240;2.696;2024-02-14T15:17:10;13.40;88.10
73777;DHT22;62088;50.240;2.696;2024-02-14T15:19:37;13.40;88.10
73777;DHT22;62088;50.240;2.696;2024-02-14T15:22:04;13.40;88.10
73777;DHT22;62088;50.240;2.696;2024-02-14T15:24:31;13.40;88.00
73777;DHT22;62088;50.240;2.696;2024-02-14T15:27:00;13.40;88.00
73777;DHT22;62088;50.240;2.696;2024-02-14T15:29:28;13.40;88.00
73777;DHT22;62088;50.240;2.696;2024-02-14T15:32:14;13.40;88.00
73777;DHT22;62088;50.240;2.696;2024-02-14T15:35:00;13.40;88.00
73777;DHT22;62088;50.240;2.696;2024-02-14T15:37:27;13.40;87.90
73777;DHT22;62088;50.240;2.696;2024-02-14T15:39:55;13.40;87.90
73777;DHT22;62088;50.240;2.696;2024-02-14T15:42:24;13.40;87.90
73777;DHT22;62088;50.240;2.696;2024-02-14T15:44:51;13.40;87.80
73777;DHT22;62088;50.240;2.696;2024-02-14T15:47:18;13.40;87.80
73777;DHT22;62088;50.240;2.696;2024-02-14T15:49:45;13.40;87.80
73777;DHT22;62088;50.240;2.696;2024-02-14T15:52:12;13.40;87.80
73777;DHT22;62088;50.240;2.696;2024-02-14T15:54:40;13.40;87.80
73777;DHT22;62088;50.240;2.696;2024-02-14T15:57:11;13.40;87.70
73777;DHT22;62088;50.240;2.696;2024-02-14T15:59:39;13.40;87.70
73777;DHT22;62088;50.240;2.696;2024-02-14T16:02:08;13.40;87.70
73777;DHT22;62088;50.240;2.696;2024-02-14T16:04:35;13.30;87.70
73777;DHT22;62088;50.240;2.696;2024-02-14T16:07:03;13.30;87.70